createdAt,value
2023-03-13T00:01:50.551Z,10.36
2023-03-13T00:04:20.421Z,10.47
2023-03-13T00:06:50.222Z,10.38
2023-03-13T00:09:20.105Z,10.25
2023-03-13T00:11:50.210Z,10.40
2023-03-13T00:14:19.980Z,10.40
2023-03-13T00:16:49.837Z,10.39
2023-03-13T00:19:19.599Z,10.30
2023-03-13T00:21:49.391Z,10.37
2023-03-13T00:24:19.042Z,10.33
2023-03-13T00:26:48.840Z,10.28
2023-03-13T00:29:19.236Z,10.10
2023-03-13T00:31:49.170Z,10.27
2023-03-13T00:34:19.358Z,10.42
2023-03-13T00:36:49.131Z,10.42
2023-03-13T00:39:18.759Z,10.34
2023-03-13T00:41:48.706Z,10.33
2023-03-13T00:44:18.458Z,9.90
2023-03-13T00:46:49.908Z,9.97
2023-03-13T00:49:19.991Z,9.93
2023-03-13T00:51:49.853Z,10.12
2023-03-13T00:54:19.838Z,10.16
2023-03-13T00:56:49.826Z,10.00
2023-03-13T00:59:19.953Z,9.98
2023-03-13T01:01:49.925Z,10.02
2023-03-13T01:04:19.724Z,10.16
2023-03-13T01:06:49.476Z,10.16
2023-03-13T01:09:19.868Z,9.95
2023-03-13T01:11:49.773Z,10.11
2023-03-13T01:14:21.144Z,10.03
2023-03-13T01:16:50.932Z,10.13
2023-03-13T01:19:20.713Z,9.89
2023-03-13T01:21:50.473Z,9.89
2023-03-13T01:24:20.477Z,10.09
2023-03-13T01:26:50.602Z,10.08
2023-03-13T01:29:20.671Z,10.16
2023-03-13T01:31:50.170Z,10.06
2023-03-13T01:34:20.284Z,9.98
2023-03-13T01:36:51.703Z,9.93
2023-03-13T01:39:21.759Z,10.10
2023-03-13T01:41:51.582Z,10.00
2023-03-13T01:44:27.382Z,10.01
2023-03-13T01:46:57.958Z,10.08
2023-03-13T01:49:34.558Z,10.24
2023-03-13T01:52:09.138Z,10.33
2023-03-13T01:54:52.841Z,10.40
2023-03-13T01:57:32.294Z,10.21
2023-03-13T02:00:05.239Z,10.17
2023-03-13T02:02:39.012Z,10.46
2023-03-13T02:05:09.081Z,10.46
2023-03-13T02:07:41.894Z,10.36
2023-03-13T02:10:14.082Z,10.35
2023-03-13T02:12:44.499Z,10.65
2023-03-13T02:15:22.876Z,10.52
2023-03-13T02:17:55.031Z,10.78
2023-03-13T02:20:26.358Z,10.75
2023-03-13T02:23:24.808Z,10.46
2023-03-13T02:25:55.396Z,10.71
2023-03-13T02:28:29.670Z,10.85
2023-03-13T02:30:59.816Z,10.94
2023-03-13T02:33:32.277Z,10.98
2023-03-13T02:36:03.545Z,10.98
2023-03-13T02:38:36.347Z,10.85
2023-03-13T02:41:06.950Z,10.95
2023-03-13T02:43:39.295Z,10.96
2023-03-13T02:46:17.659Z,10.96
2023-03-13T02:48:54.939Z,11.12
2023-03-13T02:51:34.023Z,10.93
2023-03-13T02:54:13.442Z,11.14
2023-03-13T02:56:46.422Z,11.10
2023-03-13T02:59:17.213Z,11.09
2023-03-13T03:01:47.815Z,11.08
2023-03-13T03:04:17.553Z,11.20
2023-03-13T03:06:47.421Z,11.37
2023-03-13T03:09:17.267Z,11.16
2023-03-13T03:11:47.450Z,11.41
2023-03-13T03:14:18.921Z,11.36
2023-03-13T03:16:49.429Z,11.29
2023-03-13T03:19:19.214Z,11.39
2023-03-13T03:21:49.589Z,11.39
2023-03-13T03:24:20.739Z,11.56
2023-03-13T03:26:50.510Z,11.60
2023-03-13T03:29:21.990Z,11.49
2023-03-13T03:31:53.370Z,11.64
2023-03-13T03:34:24.042Z,11.55
2023-03-13T03:36:54.438Z,11.49
2023-03-13T03:39:24.577Z,11.73
2023-03-13T03:41:55.322Z,11.79
2023-03-13T03:44:25.512Z,11.66
2023-03-13T03:46:57.002Z,11.69
2023-03-13T03:49:27.897Z,11.69
2023-03-13T03:51:57.752Z,11.62
2023-03-13T03:54:29.635Z,11.56
2023-03-13T03:56:59.608Z,11.47
2023-03-13T03:59:29.934Z,11.77
2023-03-13T04:02:01.565Z,11.75
2023-03-13T04:04:32.878Z,11.83
2023-03-13T04:07:13.072Z,11.73
2023-03-13T04:09:43.228Z,11.92
2023-03-13T04:12:14.702Z,11.97
2023-03-13T04:14:46.511Z,11.79
2023-03-13T04:17:17.469Z,11.75
2023-03-13T04:19:48.652Z,11.96
2023-03-13T04:22:18.576Z,11.90
2023-03-13T04:24:50.331Z,11.98
2023-03-13T04:27:21.098Z,11.98
2023-03-13T04:29:52.162Z,11.98
2023-03-13T04:32:23.730Z,11.94
2023-03-13T04:35:08.588Z,12.04
2023-03-13T04:37:49.602Z,11.97
2023-03-13T04:40:23.717Z,12.09
2023-03-13T04:43:04.353Z,12.13
2023-03-13T04:45:35.976Z,12.11
2023-03-13T04:48:07.741Z,12.13
2023-03-13T04:50:44.685Z,12.13
2023-03-13T04:53:19.222Z,12.37
2023-03-13T04:55:51.830Z,12.48
2023-03-13T04:58:40.007Z,12.37
2023-03-13T05:01:17.339Z,12.32
2023-03-13T05:03:55.112Z,12.32
2023-03-13T05:06:29.158Z,12.42
2023-03-13T05:09:00.930Z,12.49
2023-03-13T05:11:42.281Z,12.47
2023-03-13T05:14:22.407Z,12.62
2023-03-13T05:17:10.822Z,12.59
2023-03-13T05:19:51.144Z,12.63
2023-03-13T05:22:40.652Z,12.63
2023-03-13T05:25:27.831Z,12.84
2023-03-13T05:27:59.693Z,12.65
2023-03-13T05:30:46.622Z,12.69
2023-03-13T05:33:21.065Z,12.91
2023-03-13T05:36:01.094Z,12.84
2023-03-13T05:38:35.651Z,12.95
2023-03-13T05:41:19.142Z,12.82
2023-03-13T05:43:56.612Z,13.01
2023-03-13T05:46:37.186Z,12.92
2023-03-13T05:49:24.385Z,13.01
2023-03-13T05:52:05.084Z,13.01
2023-03-13T05:54:36.551Z,12.94
2023-03-13T05:57:26.561Z,13.05
2023-03-13T05:59:58.068Z,13.05
2023-03-13T06:02:47.408Z,12.91
2023-03-13T06:05:19.183Z,13.18
2023-03-13T06:07:51.554Z,13.15
2023-03-13T06:10:22.142Z,13.20
2023-03-13T06:12:57.974Z,13.14
2023-03-13T06:15:30.694Z,13.31
2023-03-13T06:18:10.620Z,13.27
2023-03-13T06:20:42.543Z,13.21
2023-03-13T06:23:12.301Z,13.21
2023-03-13T06:25:42.133Z,13.35
2023-03-13T06:28:12.229Z,13.35
2023-03-13T06:30:42.037Z,13.42
2023-03-13T06:33:12.746Z,13.30
2023-03-13T06:35:55.753Z,13.14
2023-03-13T06:38:15.497Z,13.34
2023-03-13T06:40:46.990Z,13.33
2023-03-13T06:43:17.163Z,13.36
2023-03-13T06:45:47.058Z,13.31
2023-03-13T06:48:19.120Z,13.54
2023-03-13T06:50:48.927Z,13.54
2023-03-13T06:53:21.559Z,13.34
2023-03-13T06:55:51.370Z,13.55
2023-03-13T06:58:32.125Z,13.64
2023-03-13T07:00:53.063Z,13.48
2023-03-13T07:03:23.421Z,13.50
2023-03-13T07:05:59.836Z,13.53
2023-03-13T07:08:29.979Z,13.59
2023-03-13T07:11:03.002Z,13.65
2023-03-13T07:13:33.249Z,13.49
2023-03-13T07:16:08.883Z,13.63
2023-03-13T07:18:42.147Z,13.63
2023-03-13T07:21:12.797Z,13.72
2023-03-13T07:23:42.665Z,13.70
2023-03-13T07:26:15.968Z,13.73
2023-03-13T07:28:46.149Z,13.61
2023-03-13T07:31:21.519Z,13.61
2023-03-13T07:33:55.978Z,13.94
2023-03-13T07:36:26.004Z,13.96
2023-03-13T07:38:55.743Z,13.88
2023-03-13T07:41:28.706Z,13.86
2023-03-13T07:43:58.468Z,13.70
2023-03-13T07:46:28.028Z,13.89
2023-03-13T07:48:58.225Z,14.12
2023-03-13T07:51:42.421Z,14.02
2023-03-13T07:54:00.210Z,14.00
2023-03-13T07:56:30.061Z,13.96
2023-03-13T07:58:59.824Z,14.04
2023-03-13T08:01:31.118Z,13.85
2023-03-13T08:04:05.585Z,13.63
2023-03-13T08:06:39.826Z,13.85
2023-03-13T08:09:11.331Z,13.95
2023-03-13T08:11:42.428Z,13.89
2023-03-13T08:14:14.324Z,13.75
2023-03-13T08:16:44.237Z,13.72
2023-03-13T08:19:14.005Z,13.90
2023-03-13T08:21:43.869Z,14.05
2023-03-13T08:24:15.235Z,14.06
2023-03-13T08:26:45.129Z,13.89
2023-03-13T08:29:16.237Z,14.03
2023-03-13T08:31:48.990Z,14.13
2023-03-13T08:34:20.726Z,14.18
2023-03-13T08:36:52.712Z,14.09
2023-03-13T08:39:22.729Z,14.11
2023-03-13T08:41:52.561Z,13.86
2023-03-13T08:44:22.089Z,14.18
2023-03-13T08:46:52.328Z,13.91
2023-03-13T08:49:22.141Z,13.87
2023-03-13T08:51:51.964Z,14.03
2023-03-13T08:54:21.815Z,14.25
2023-03-13T08:56:51.671Z,14.43
2023-03-13T08:59:21.423Z,14.39
2023-03-13T09:01:51.205Z,14.13
2023-03-13T09:04:21.403Z,14.32
2023-03-13T09:06:51.589Z,14.32
2023-03-13T09:09:22.827Z,13.95
2023-03-13T09:11:52.973Z,14.40
2023-03-13T09:14:22.627Z,14.39
2023-03-13T09:16:52.382Z,14.00
2023-03-13T09:19:22.068Z,14.28
2023-03-13T09:21:51.892Z,14.08
2023-03-13T09:24:21.550Z,14.58
2023-03-13T09:27:00.617Z,14.95
2023-03-13T09:29:23.050Z,15.19
2023-03-13T09:31:52.796Z,15.19
2023-03-13T09:34:24.385Z,15.64
2023-03-13T09:36:54.146Z,15.64
2023-03-13T09:39:24.209Z,15.93
2023-03-13T09:41:57.206Z,15.86
2023-03-13T09:44:38.652Z,15.94
2023-03-13T09:47:29.554Z,15.78
2023-03-13T09:50:02.450Z,15.51
2023-03-13T09:52:41.635Z,15.61
2023-03-13T09:55:17.203Z,15.75
2023-03-13T09:57:57.234Z,15.76
2023-03-13T10:00:32.250Z,15.67
2023-03-13T10:03:13.818Z,15.79
2023-03-13T10:05:52.884Z,15.79
2023-03-13T10:08:28.551Z,16.00
2023-03-13T10:11:25.650Z,16.07
2023-03-13T10:14:16.010Z,16.09
2023-03-13T10:16:57.515Z,15.87
2023-03-13T10:19:37.276Z,16.04
2023-03-13T10:22:22.564Z,15.88
2023-03-13T10:25:01.304Z,15.75
2023-03-13T10:27:31.169Z,15.82
2023-03-13T10:30:00.877Z,15.57
2023-03-13T10:32:30.655Z,15.86
2023-03-13T10:35:03.334Z,15.76
2023-03-13T10:37:36.156Z,15.99
2023-03-13T10:40:23.518Z,16.50
2023-03-13T10:42:55.325Z,16.21
2023-03-13T10:45:25.613Z,16.12
2023-03-13T10:47:57.519Z,16.25
2023-03-13T10:50:29.367Z,16.37
2023-03-13T10:52:59.457Z,16.53
2023-03-13T10:55:29.267Z,16.20
2023-03-13T10:58:02.294Z,16.30
2023-03-13T11:00:41.073Z,16.53
2023-03-13T11:03:22.412Z,16.84
2023-03-13T11:05:58.027Z,17.56
2023-03-13T11:08:30.546Z,17.10
2023-03-13T11:11:02.997Z,17.19
2023-03-13T11:13:44.125Z,17.19
2023-03-13T11:16:30.412Z,17.59
2023-03-13T11:19:26.939Z,17.71
2023-03-13T11:22:17.288Z,17.89
2023-03-13T11:25:11.854Z,17.48
2023-03-13T11:27:53.430Z,17.63
2023-03-13T11:30:42.396Z,16.86
2023-03-13T11:33:16.818Z,17.20
2023-03-13T11:36:01.815Z,17.11
2023-03-13T11:38:46.160Z,16.74
2023-03-13T11:44:17.957Z,17.48
2023-03-13T11:47:17.827Z,17.52
2023-03-13T11:49:50.613Z,17.10
2023-03-13T11:52:23.333Z,17.44
2023-03-13T11:55:04.566Z,17.93
2023-03-13T11:57:39.907Z,17.52
2023-03-13T12:00:34.188Z,17.37
2023-03-13T12:03:23.204Z,17.37
2023-03-13T12:05:59.368Z,17.83
2023-03-13T12:08:29.577Z,17.83
2023-03-13T12:11:08.151Z,17.82
2023-03-13T12:13:40.668Z,17.96
2023-03-13T12:16:21.917Z,18.24
2023-03-13T12:18:54.048Z,17.73
2023-03-13T12:21:29.555Z,17.97
2023-03-13T12:24:14.345Z,17.48
2023-03-13T12:26:47.116Z,17.35
2023-03-13T12:29:26.649Z,17.47
2023-03-13T12:32:14.299Z,17.66
2023-03-13T12:34:49.725Z,17.64
2023-03-13T12:37:38.597Z,17.68
2023-03-13T12:40:36.766Z,17.69
2023-03-13T12:43:25.549Z,17.92
2023-03-13T12:46:04.240Z,17.49
2023-03-13T12:48:45.891Z,17.49
2023-03-13T12:51:34.970Z,17.60
2023-03-13T12:54:24.077Z,17.71
2023-03-13T12:57:11.866Z,17.71
2023-03-13T12:59:45.042Z,17.71
2023-03-13T13:02:24.538Z,17.77
2023-03-13T13:04:56.814Z,17.50
2023-03-13T13:07:40.303Z,17.89
2023-03-13T13:10:16.832Z,18.27
2023-03-13T13:12:50.504Z,18.28
2023-03-13T13:15:30.746Z,18.70
2023-03-13T13:18:26.076Z,18.67
2023-03-13T13:21:07.669Z,18.64
2023-03-13T13:23:44.258Z,18.69
2023-03-13T13:26:33.635Z,19.02
2023-03-13T13:29:18.325Z,19.16
2023-03-13T13:31:55.293Z,19.53
2023-03-13T13:34:36.378Z,18.87
2023-03-13T13:37:14.884Z,19.08
2023-03-13T13:39:53.498Z,18.82
2023-03-13T13:42:36.669Z,19.07
2023-03-13T13:45:20.342Z,18.98
2023-03-13T13:47:51.679Z,19.25
2023-03-13T13:50:26.465Z,19.25
2023-03-13T13:53:15.486Z,19.03
2023-03-13T13:55:46.383Z,18.66
2023-03-13T13:58:21.877Z,18.84
2023-03-13T14:01:02.727Z,18.61
2023-03-13T14:03:35.898Z,18.60
2023-03-13T14:06:25.842Z,18.66
2023-03-13T14:08:58.751Z,18.70
2023-03-13T14:11:37.313Z,18.88
2023-03-13T14:14:22.246Z,18.63
2023-03-13T14:16:58.895Z,18.86
2023-03-13T14:19:33.673Z,18.43
2023-03-13T14:22:08.899Z,18.17
2023-03-13T14:24:39.084Z,18.42
2023-03-13T14:27:17.269Z,18.42
2023-03-13T14:30:09.208Z,18.57
2023-03-13T14:32:40.409Z,18.50
2023-03-13T14:35:12.544Z,18.90
2023-03-13T14:37:47.636Z,18.72
2023-03-13T14:40:28.354Z,18.51
2023-03-13T14:43:02.535Z,18.37
2023-03-13T14:45:39.896Z,18.40
2023-03-13T14:48:35.020Z,18.49
2023-03-13T14:51:15.697Z,18.39
2023-03-13T14:53:43.994Z,18.43
2023-03-13T14:56:19.307Z,18.48
2023-03-13T14:58:49.506Z,18.54
2023-03-13T15:01:29.363Z,18.54
2023-03-13T15:04:00.646Z,18.56
2023-03-13T15:06:30.816Z,18.63
2023-03-13T15:09:22.019Z,18.63
2023-03-13T15:12:02.504Z,18.52
2023-03-13T15:14:43.762Z,18.52
2023-03-13T15:17:18.851Z,18.90
2023-03-13T15:19:54.130Z,18.92
2023-03-13T15:22:33.893Z,18.63
2023-03-13T15:25:07.496Z,18.18
2023-03-13T15:27:36.930Z,17.79
2023-03-13T15:30:08.639Z,17.90
2023-03-13T15:32:42.631Z,17.84
2023-03-13T15:35:32.737Z,18.13
2023-03-13T15:38:03.461Z,18.42
2023-03-13T15:40:33.065Z,17.86
2023-03-13T15:43:02.832Z,17.86
2023-03-13T15:45:32.772Z,17.75
2023-03-13T15:48:03.037Z,18.05
2023-03-13T15:50:32.671Z,17.81
2023-03-13T15:53:02.491Z,17.77
2023-03-13T15:55:32.541Z,17.69
2023-03-13T15:58:02.280Z,17.56
2023-03-13T16:00:31.974Z,17.76
2023-03-13T16:03:01.501Z,17.66
2023-03-13T16:05:31.295Z,17.88
2023-03-13T16:08:01.300Z,17.92
2023-03-13T16:10:33.105Z,17.78
2023-03-13T16:13:03.528Z,17.86
2023-03-13T16:15:33.045Z,17.65
2023-03-13T16:18:03.409Z,17.57
2023-03-13T16:20:35.132Z,17.49
2023-03-13T16:23:04.971Z,17.58
2023-03-13T16:25:35.163Z,17.49
2023-03-13T16:28:08.812Z,17.46
2023-03-13T16:30:40.738Z,17.25
2023-03-13T16:33:11.538Z,17.27
2023-03-13T16:35:41.478Z,17.45
2023-03-13T16:38:12.603Z,17.38
2023-03-13T16:40:42.134Z,17.46
2023-03-13T16:43:13.414Z,17.17
2023-03-13T16:45:43.911Z,17.46
2023-03-13T16:48:16.721Z,16.94
2023-03-13T16:50:46.574Z,17.12
2023-03-13T16:53:16.728Z,16.88
2023-03-13T16:55:46.742Z,16.79
2023-03-13T16:58:16.429Z,16.62
2023-03-13T17:00:59.339Z,16.85
2023-03-13T17:03:17.710Z,16.67
2023-03-13T17:05:47.811Z,16.70
2023-03-13T17:08:17.593Z,16.50
2023-03-13T17:13:18.777Z,16.42
2023-03-13T17:15:48.618Z,16.42
2023-03-13T17:18:18.468Z,16.38
2023-03-13T17:20:48.808Z,16.30
2023-03-13T17:23:18.895Z,16.17
2023-03-13T17:25:48.914Z,16.14
2023-03-13T17:28:18.415Z,15.88
2023-03-13T17:30:48.306Z,16.02
2023-03-13T17:33:18.162Z,15.84
2023-03-13T17:35:47.972Z,15.91
2023-03-13T17:38:17.859Z,15.87
2023-03-13T17:40:47.844Z,16.05
2023-03-13T17:43:17.664Z,15.83
2023-03-13T17:45:47.479Z,15.88
2023-03-13T17:48:17.525Z,15.68
2023-03-13T17:50:47.292Z,15.59
2023-03-13T17:53:17.248Z,15.57
2023-03-13T17:55:47.463Z,15.55
2023-03-13T17:58:17.235Z,15.52
2023-03-13T18:00:47.599Z,15.57
2023-03-13T18:03:17.683Z,15.51
2023-03-13T18:05:47.444Z,15.40
2023-03-13T18:08:16.963Z,15.51
2023-03-13T18:10:46.824Z,15.69
2023-03-13T18:13:16.573Z,15.53
2023-03-13T18:15:46.342Z,15.61
2023-03-13T18:18:18.861Z,15.61
2023-03-13T18:20:48.650Z,15.42
2023-03-13T18:23:18.797Z,15.50
2023-03-13T18:25:48.630Z,15.51
2023-03-13T18:28:18.244Z,15.26
2023-03-13T18:30:48.545Z,15.52
2023-03-13T18:33:18.362Z,15.48
2023-03-13T18:35:48.165Z,15.22
2023-03-13T18:38:19.120Z,15.31
2023-03-13T18:40:48.894Z,15.37
2023-03-13T18:43:18.649Z,15.41
2023-03-13T18:45:48.420Z,15.22
2023-03-13T18:48:18.171Z,15.16
2023-03-13T18:50:48.281Z,15.22
2023-03-13T18:53:18.089Z,15.47
2023-03-13T18:55:47.907Z,15.54
2023-03-13T18:58:17.717Z,15.61
2023-03-13T19:00:47.987Z,15.44
2023-03-13T19:03:19.437Z,15.36
2023-03-13T19:05:49.196Z,15.38
2023-03-13T19:08:19.171Z,15.36
2023-03-13T19:10:49.024Z,15.30
2023-03-13T19:13:18.999Z,15.44
2023-03-13T19:15:48.788Z,15.35
2023-03-13T19:18:18.788Z,15.17
2023-03-13T19:20:49.829Z,15.11
2023-03-13T19:23:19.938Z,15.11
2023-03-13T19:25:49.692Z,14.98
2023-03-13T19:28:19.570Z,14.97
2023-03-13T19:30:49.312Z,14.84
2023-03-13T19:33:19.846Z,14.85
2023-03-13T19:35:49.619Z,14.81
2023-03-13T19:38:19.130Z,15.00
2023-03-13T19:40:48.910Z,14.81
2023-03-13T19:43:18.485Z,14.73
2023-03-13T19:45:48.656Z,14.60
2023-03-13T19:48:18.217Z,14.56
2023-03-13T19:50:48.304Z,14.49
2023-03-13T19:53:18.153Z,14.27
2023-03-13T19:55:47.977Z,14.37
2023-03-13T19:58:17.831Z,14.22
2023-03-13T20:00:47.578Z,14.19
2023-03-13T20:03:17.353Z,13.89
2023-03-13T20:05:47.103Z,13.83
2023-03-13T20:08:16.897Z,13.74
2023-03-13T20:10:46.995Z,13.76
2023-03-13T20:13:16.776Z,13.63
2023-03-13T20:15:46.656Z,13.46
2023-03-13T20:18:16.147Z,13.41
2023-03-13T20:20:46.194Z,13.51
2023-03-13T20:23:15.948Z,13.58
2023-03-13T20:25:46.029Z,13.75
2023-03-13T20:28:16.147Z,13.69
2023-03-13T20:30:47.615Z,13.76
2023-03-13T20:33:17.779Z,13.89
2023-03-13T20:35:47.336Z,13.73
2023-03-13T20:38:17.105Z,13.78
2023-03-13T20:40:49.920Z,13.91
2023-03-13T20:43:20.484Z,14.08
2023-03-13T20:45:50.351Z,14.05
2023-03-13T20:48:20.633Z,14.17
2023-03-13T20:50:55.828Z,13.99
2023-03-13T20:53:26.717Z,13.95
2023-03-13T20:55:56.500Z,13.83
2023-03-13T20:58:26.334Z,13.99
2023-03-13T21:01:01.529Z,13.88
2023-03-13T21:03:35.861Z,13.97
2023-03-13T21:06:16.396Z,13.99
2023-03-13T21:08:46.996Z,14.12
2023-03-13T21:11:19.640Z,14.11
2023-03-13T21:13:50.298Z,14.10
2023-03-13T21:16:20.240Z,14.20
2023-03-13T21:18:50.068Z,14.08
2023-03-13T21:21:22.293Z,13.84
2023-03-13T21:23:53.093Z,13.93
2023-03-13T21:26:22.935Z,13.73
2023-03-13T21:28:53.017Z,13.73
2023-03-13T21:31:23.012Z,13.73
2023-03-13T21:33:52.847Z,13.72
2023-03-13T21:36:23.379Z,13.86
2023-03-13T21:38:53.270Z,13.71
2023-03-13T21:41:23.832Z,13.85
2023-03-13T21:43:55.311Z,13.89
2023-03-13T21:46:25.224Z,13.80
2023-03-13T21:48:55.197Z,13.47
2023-03-13T21:51:24.957Z,13.47
2023-03-13T21:53:54.679Z,13.57
2023-03-13T21:56:24.134Z,13.62
2023-03-13T21:58:54.162Z,13.55
2023-03-13T22:01:24.308Z,13.55
2023-03-13T22:03:54.197Z,13.43
2023-03-13T22:06:24.208Z,13.28
2023-03-13T22:08:54.053Z,13.40
2023-03-13T22:11:23.809Z,13.34
2023-03-13T22:13:53.718Z,13.46
2023-03-13T22:16:25.397Z,13.41
2023-03-13T22:18:55.866Z,13.38
2023-03-13T22:21:25.924Z,13.12
2023-03-13T22:23:55.820Z,13.06
2023-03-13T22:26:25.362Z,13.19
2023-03-13T22:28:55.266Z,13.16
2023-03-13T22:31:25.046Z,13.20
2023-03-13T22:33:54.732Z,13.24
2023-03-13T22:36:24.289Z,13.01
2023-03-13T22:38:54.116Z,13.38
2023-03-13T22:41:23.909Z,13.13
2023-03-13T22:43:53.879Z,13.05
2023-03-13T22:46:23.761Z,13.10
2023-03-13T22:48:53.563Z,13.18
2023-03-13T22:51:23.344Z,13.23
2023-03-13T22:53:53.091Z,13.18
2023-03-13T22:56:24.546Z,13.17
2023-03-13T22:58:54.643Z,12.95
2023-03-13T23:01:24.696Z,13.14
2023-03-13T23:03:54.290Z,13.03
2023-03-13T23:06:25.598Z,13.04
2023-03-13T23:08:55.526Z,12.95
2023-03-13T23:11:25.328Z,13.09
2023-03-13T23:13:55.274Z,13.06
2023-03-13T23:16:24.830Z,13.02
2023-03-13T23:18:54.598Z,12.86
2023-03-13T23:21:24.068Z,13.13
2023-03-13T23:23:55.177Z,13.01
2023-03-13T23:26:24.702Z,12.89
2023-03-13T23:28:54.496Z,12.91
2023-03-13T23:31:24.405Z,12.93
2023-03-13T23:33:54.801Z,13.05
2023-03-13T23:36:24.574Z,13.05
2023-03-13T23:38:56.873Z,12.76
2023-03-13T23:41:26.718Z,12.74
2023-03-13T23:43:56.526Z,12.74
2023-03-13T23:46:26.950Z,12.80
2023-03-13T23:48:58.317Z,13.04
2023-03-13T23:51:28.141Z,12.75
2023-03-13T23:53:57.910Z,12.75
2023-03-13T23:56:29.553Z,12.88
2023-03-13T23:58:59.713Z,12.71
